Como, North Carolina
Current Conditions -  °F | °C
As of 12:35 AM on Thursday 18 Dec 2014 (Local Time) from KFKN Reporting Station
Clear Clear  
Wind Chill: 41°   Ceiling: Unl
Heat Index: 41°   Visibility: 10mi
Dew Point: 34°   Wind: 3mph
Humidity: 76%   Direction: 310°NW
Pressure: 30.06"   Gusts: NA
Location:  36.5°N, 77.01°W
Report Text: KFKN 180535Z AUTO 31003KT 10SM CLR 05/01 A3006 RMK AO1
Loading
Personal Weather Stations






























Interactive Weather Map New forecast layout! Learn more

10-Day Weather Forecast

Advertisements
Track Severe Weather on mobile